Auxvasse, Missouri
Current Conditions -  °F | °C
As of 4:54 AM on Friday 19 Dec 2014 (Local Time) from KCOU Reporting Station
Haze Haze  
Wind Chill: 27°   Ceiling: 500
Heat Index: 32°   Visibility: 5mi
Dew Point: 30°   Wind: 5mph
Humidity: 92%   Direction: 80°E
Pressure: 30.25"   Gusts: NA
Location:  39.02°N, 91.9°W
Report Text: KCOU 191054Z AUTO 08004KT 5SM BR OVC005 00/M01 A3025 RMK AO2 SLP250 T00001011
Loading
Personal Weather Stations






























Interactive Weather Map New forecast layout! Learn more

10-Day Weather Forecast

Advertisements
Track Severe Weather on mobile